createdAt,value
2017-12-09T00:00:53.747Z,79.1
2017-12-09T00:01:52.566Z,79
2017-12-09T00:02:51.665Z,78.9
2017-12-09T00:03:50.476Z,79
2017-12-09T00:04:49.790Z,78.9
2017-12-09T00:05:48.378Z,78.5
2017-12-09T00:06:47.695Z,78.3
2017-12-09T00:07:46.610Z,78.7
2017-12-09T00:08:45.425Z,78.8
2017-12-09T00:09:44.642Z,78.8
2017-12-09T00:10:43.239Z,78.8
2017-12-09T00:11:42.549Z,78.9
2017-12-09T00:12:41.471Z,79
2017-12-09T00:13:40.269Z,79.1
2017-12-09T00:14:39.192Z,79
2017-12-09T00:15:38.287Z,78.7
2017-12-09T00:16:37.500Z,78.9
2017-12-09T00:17:08.130Z,78.9
2017-12-09T00:17:38.541Z,78.9
2017-12-09T00:18:35.233Z,79.2
2017-12-09T00:19:05.754Z,79.2
2017-12-09T00:19:36.282Z,79.3
2017-12-09T00:20:06.601Z,79.3
2017-12-09T00:21:32.073Z,78.9
2017-12-09T00:22:31.386Z,78.8
2017-12-09T00:23:30.092Z,78.7
2017-12-09T00:24:28.908Z,78.8
2017-12-09T00:25:28.112Z,78
2017-12-09T00:26:26.814Z,77.9
2017-12-09T00:27:25.914Z,77.4
2017-12-09T00:28:25.122Z,76.7
2017-12-09T00:29:23.829Z,77
2017-12-09T00:29:54.459Z,77
2017-12-09T00:30:24.990Z,76.5
2017-12-09T00:31:21.682Z,76.2
2017-12-09T00:32:20.993Z,76.3
2017-12-09T00:33:19.702Z,75.9
2017-12-09T00:34:19.015Z,75.8
2017-12-09T00:36:16.806Z,76.1
2017-12-09T00:38:14.502Z,75.5
2017-12-09T00:39:13.626Z,75
2017-12-09T00:40:12.437Z,75.2
2017-12-09T00:41:11.537Z,75
2017-12-09T00:42:10.915Z,74.9
2017-12-09T00:43:09.717Z,73.8
2017-12-09T00:44:08.527Z,73.7
2017-12-09T00:45:07.631Z,73.4
2017-12-09T00:46:06.558Z,73
2017-12-09T00:47:05.264Z,72.5
2017-12-09T00:48:04.359Z,72.1
2017-12-09T00:49:03.171Z,72.5
2017-12-09T00:50:02.263Z,72.6
2017-12-09T00:51:01.372Z,72.7
2017-12-09T00:52:00.185Z,73
2017-12-09T00:52:59.392Z,72.6
2017-12-09T00:53:58.204Z,71.8
2017-12-09T00:54:57.313Z,72
2017-12-09T00:55:55.914Z,72.2
2017-12-09T00:56:55.330Z,72.1
2017-12-09T00:57:54.137Z,72.2
2017-12-09T00:58:53.130Z,71.5
2017-12-09T00:59:51.842Z,71.7
2017-12-09T01:00:51.057Z,71.6
2017-12-09T01:01:49.858Z,72
2017-12-09T01:02:48.848Z,71.6
2017-12-09T01:03:48.055Z,71.8
2017-12-09T01:04:46.864Z,72.4
2017-12-09T01:05:45.750Z,72.1
2017-12-09T01:06:45.066Z,72.1
2017-12-09T01:07:43.774Z,71.9
2017-12-09T01:08:42.593Z,72
2017-12-09T01:09:13.118Z,72
2017-12-09T01:09:43.740Z,72
2017-12-09T01:10:40.431Z,71.8
2017-12-09T01:11:39.847Z,72.2
2017-12-09T01:12:38.552Z,71.7
2017-12-09T01:13:37.543Z,72.6
2017-12-09T01:14:36.861Z,72.3
2017-12-09T01:15:35.402Z,72.2
2017-12-09T01:16:34.707Z,72.1
2017-12-09T01:17:33.525Z,73
2017-12-09T01:19:31.672Z,72.9
2017-12-09T01:20:30.378Z,72.9
2017-12-09T01:21:29.198Z,72.7
2017-12-09T01:22:28.515Z,72.5
2017-12-09T01:23:27.325Z,73
2017-12-09T01:24:26.135Z,72.6
2017-12-09T01:25:25.344Z,72.9
2017-12-09T01:26:24.152Z,73.2
2017-12-09T01:27:22.861Z,73
2017-12-09T01:28:22.073Z,72.9
2017-12-09T01:29:20.992Z,72.7
2017-12-09T01:30:19.914Z,72.1
2017-12-09T01:31:19.127Z,72.2
2017-12-09T01:32:17.829Z,72
2017-12-09T01:33:17.143Z,71.9
2017-12-09T01:34:15.962Z,72
2017-12-09T01:35:15.058Z,72.2
2017-12-09T01:36:14.161Z,71.4
2017-12-09T01:37:12.876Z,71.9
2017-12-09T01:38:11.973Z,71.7
2017-12-09T01:39:10.677Z,71.6
2017-12-09T01:40:09.896Z,71.1
2017-12-09T01:41:08.594Z,70.8
2017-12-09T01:42:07.801Z,70.9
2017-12-09T01:43:06.716Z,71.3
2017-12-09T01:44:05.523Z,70.2
2017-12-09T01:45:04.727Z,70.4
2017-12-09T01:46:03.820Z,70.1
2017-12-09T01:47:02.741Z,70.5
2017-12-09T01:48:01.446Z,70.3
2017-12-09T01:49:00.360Z,70.1
2017-12-09T01:49:59.558Z,69.7
2017-12-09T01:50:58.266Z,69.7
2017-12-09T01:51:57.177Z,70
2017-12-09T01:52:56.284Z,69.6
2017-12-09T01:53:26.803Z,69.6
2017-12-09T01:53:57.428Z,69.5
2017-12-09T01:54:27.840Z,69.5
2017-12-09T01:55:53.113Z,69.9
2017-12-09T01:56:52.110Z,69.8
2017-12-09T01:57:51.420Z,70
2017-12-09T01:58:50.126Z,69.3
2017-12-09T01:59:49.336Z,69.7
2017-12-09T02:00:48.144Z,69.5
2017-12-09T02:01:46.959Z,69.6
2017-12-09T02:02:45.950Z,69.9
2017-12-09T02:03:16.478Z,69.9
2017-12-09T02:03:46.892Z,69.7
2017-12-09T02:04:17.072Z,69.7
2017-12-09T02:05:43.055Z,69.5
2017-12-09T02:06:41.653Z,69.1
2017-12-09T02:07:40.752Z,69.1
2017-12-09T02:08:39.955Z,69.8
2017-12-09T02:09:38.942Z,69.8
2017-12-09T02:10:37.757Z,69.4
2017-12-09T02:11:36.576Z,69.1
2017-12-09T02:12:35.888Z,69
2017-12-09T02:13:34.478Z,69.2
2017-12-09T02:14:33.677Z,69.2
2017-12-09T02:15:32.599Z,69.4
2017-12-09T02:16:31.804Z,69.1
2017-12-09T02:17:30.619Z,69.3
2017-12-09T02:18:29.612Z,69.1
2017-12-09T02:19:28.206Z,69.3
2017-12-09T02:20:27.630Z,69.3
2017-12-09T02:21:26.332Z,69.1
2017-12-09T02:22:25.039Z,69.4
2017-12-09T02:23:24.250Z,69.7
2017-12-09T02:24:23.489Z,69.7
2017-12-09T02:25:22.319Z,69.9
2017-12-09T02:26:21.134Z,69.5
2017-12-09T02:27:20.336Z,70.1
2017-12-09T02:28:19.143Z,69.6
2017-12-09T02:29:18.131Z,70
2017-12-09T02:30:17.337Z,70.3
2017-12-09T02:31:16.262Z,69.5
2017-12-09T02:32:15.070Z,69.7
2017-12-09T02:32:45.595Z,69.7
2017-12-09T02:33:16.345Z,70.2
2017-12-09T02:33:46.985Z,70.2
2017-12-09T02:34:17.510Z,70
2017-12-09T02:34:48.166Z,70
2017-12-09T02:35:18.403Z,70.3
2017-12-09T02:35:49.031Z,70.3
2017-12-09T02:37:09.765Z,70.6
2017-12-09T02:38:08.761Z,70.7
2017-12-09T02:39:07.868Z,70.6
2017-12-09T02:40:06.747Z,71
2017-12-09T02:41:05.740Z,70.4
2017-12-09T02:42:04.958Z,70.5
2017-12-09T02:42:35.387Z,70.5
2017-12-09T02:43:05.919Z,70.4
2017-12-09T02:43:36.332Z,70.4
2017-12-09T02:44:06.870Z,70.4
2017-12-09T02:44:37.407Z,70.4
2017-12-09T02:45:07.641Z,70.8
2017-12-09T02:45:37.887Z,70.8
2017-12-09T02:46:08.516Z,71.1
2017-12-09T02:46:38.647Z,71.1
2017-12-09T02:47:58.492Z,70.6
2017-12-09T02:48:57.717Z,70.7
2017-12-09T02:49:56.610Z,70.6
2017-12-09T02:50:55.544Z,71
2017-12-09T02:51:54.353Z,71
2017-12-09T02:52:53.061Z,70.9
2017-12-09T02:53:52.293Z,71
2017-12-09T02:54:51.116Z,71.1
2017-12-09T02:55:50.435Z,71.7
2017-12-09T02:56:49.244Z,72.2
2017-12-09T02:57:48.060Z,72.5
2017-12-09T02:58:47.365Z,73
2017-12-09T02:59:46.213Z,73.4
2017-12-09T03:00:44.816Z,74.3
2017-12-09T03:01:44.031Z,74.5
2017-12-09T03:02:42.840Z,76.1
2017-12-09T03:03:42.153Z,77
2017-12-09T03:04:41.140Z,77.6
2017-12-09T03:05:40.243Z,78.6
2017-12-09T03:06:39.050Z,78.8
2017-12-09T03:07:38.160Z,79.9
2017-12-09T03:08:36.960Z,80.1
2017-12-09T03:09:35.769Z,80.3
2017-12-09T03:10:35.083Z,80.8
2017-12-09T03:11:33.677Z,81
2017-12-09T03:12:32.877Z,81
2017-12-09T03:13:31.581Z,81.4
2017-12-09T03:14:02.120Z,81.4
2017-12-09T03:14:32.312Z,80.5
2017-12-09T03:15:02.832Z,80.5
2017-12-09T03:15:33.348Z,80.6
2017-12-09T03:16:03.866Z,80.6
2017-12-09T03:17:27.733Z,80.3
2017-12-09T03:18:26.324Z,80.6
2017-12-09T03:19:25.644Z,79.9
2017-12-09T03:20:24.246Z,80.3
2017-12-09T03:21:23.454Z,80
2017-12-09T03:22:22.777Z,80.3
2017-12-09T03:23:21.263Z,80.2
2017-12-09T03:24:20.468Z,78.9
2017-12-09T03:24:50.600Z,78.9
2017-12-09T03:25:21.115Z,78.5
2017-12-09T03:25:51.533Z,78.5
2017-12-09T03:26:22.153Z,78.2
2017-12-09T03:27:17.335Z,77.9
2017-12-09T03:28:16.761Z,78.6
2017-12-09T03:29:15.360Z,78.8
2017-12-09T03:30:14.065Z,79
2017-12-09T03:31:13.402Z,79.1
2017-12-09T03:32:12.238Z,79.4
2017-12-09T03:33:11.043Z,79.9
2017-12-09T03:34:09.955Z,80
2017-12-09T03:35:09.376Z,80.6
2017-12-09T03:36:07.987Z,81.2
2017-12-09T03:37:07.080Z,81.1
2017-12-09T03:38:06.294Z,81.5
2017-12-09T03:39:05.110Z,81.6
2017-12-09T03:40:04.021Z,82.2
2017-12-09T03:41:02.729Z,82.6
2017-12-09T03:42:02.042Z,83.2
2017-12-09T03:43:00.857Z,83.6
2017-12-09T03:43:59.679Z,83.9
2017-12-09T03:44:58.679Z,84.3
2017-12-09T03:45:57.891Z,84.4
2017-12-09T03:46:56.811Z,84.7
2017-12-09T03:47:55.801Z,85.1
2017-12-09T03:48:54.712Z,85.3
2017-12-09T03:49:53.524Z,85.6
2017-12-09T03:50:52.731Z,85.6
2017-12-09T03:51:51.436Z,85.9
2017-12-09T03:52:50.805Z,85.5
2017-12-09T03:53:49.538Z,85.7
2017-12-09T03:55:47.647Z,85.6
2017-12-09T03:56:46.366Z,85.7
2017-12-09T03:57:45.253Z,85.1
2017-12-09T03:58:44.585Z,84.6
2017-12-09T03:59:43.086Z,84.6
2017-12-09T04:00:42.412Z,84.4
2017-12-09T04:01:41.121Z,84.4
2017-12-09T04:02:40.445Z,83.5
2017-12-09T04:03:39.225Z,83.6
2017-12-09T04:04:38.150Z,84
2017-12-09T04:05:37.466Z,83.2
2017-12-09T04:06:36.405Z,83.1
2017-12-09T04:07:34.904Z,83.3
2017-12-09T04:08:34.121Z,83.1
2017-12-09T04:09:32.840Z,82.8
2017-12-09T04:10:32.070Z,82.8
2017-12-09T04:11:30.864Z,82.8
2017-12-09T04:12:30.199Z,82.9
2017-12-09T04:13:29.023Z,82.9
2017-12-09T04:14:27.851Z,83
2017-12-09T04:15:27.073Z,83.3
2017-12-09T04:16:26.079Z,83.1
2017-12-09T04:17:24.795Z,83.5
2017-12-09T04:18:24.119Z,83.7
2017-12-09T04:19:22.613Z,83.6
2017-12-09T04:20:21.834Z,84
2017-12-09T04:21:20.948Z,84
2017-12-09T04:22:19.560Z,84.4
2017-12-09T04:23:18.879Z,83.8
2017-12-09T04:24:17.735Z,84.4
2017-12-09T04:25:16.850Z,84.1
2017-12-09T04:26:15.667Z,83.9
2017-12-09T04:27:14.487Z,84.2
2017-12-09T04:28:13.708Z,84.3
2017-12-09T04:29:12.526Z,84.5
2017-12-09T04:30:11.736Z,84.5
2017-12-09T04:31:10.553Z,84.4
2017-12-09T04:32:09.447Z,84.5
2017-12-09T04:33:08.664Z,84.4
2017-12-09T04:34:07.268Z,84.4
2017-12-09T04:35:06.589Z,84.4
2017-12-09T04:36:05.313Z,84.1
2017-12-09T04:37:04.128Z,84
2017-12-09T04:38:03.354Z,84.1
2017-12-09T04:39:02.178Z,84.2
2017-12-09T04:40:01.446Z,83.9
2017-12-09T04:41:00.158Z,84
2017-12-09T04:41:59.275Z,84.1
2017-12-09T04:42:57.995Z,84.5
2017-12-09T04:43:56.820Z,84.2
2017-12-09T04:44:56.214Z,84.6
2017-12-09T04:45:54.940Z,84.3
2017-12-09T04:46:54.167Z,84.4
2017-12-09T04:47:52.884Z,84.1
2017-12-09T04:48:52.240Z,83.9
2017-12-09T04:49:22.737Z,83.9
2017-12-09T04:49:53.271Z,83.7
2017-12-09T04:50:23.916Z,83.7
2017-12-09T04:50:54.444Z,83.7
2017-12-09T04:51:49.146Z,83.9
2017-12-09T04:52:47.967Z,83.8
2017-12-09T04:53:46.878Z,83.8
2017-12-09T04:54:45.990Z,83.8
2017-12-09T04:55:44.818Z,83.8
2017-12-09T04:56:43.926Z,83.9
2017-12-09T04:58:41.728Z,83.7
2017-12-09T04:59:11.970Z,83.7
2017-12-09T04:59:42.604Z,83.7
2017-12-09T05:00:13.248Z,83.7
2017-12-09T05:00:43.489Z,83.8
2017-12-09T05:01:13.804Z,83.8
2017-12-09T05:03:36.564Z,84
2017-12-09T05:04:35.772Z,83.9
2017-12-09T05:05:34.601Z,83.8
2017-12-09T05:06:33.319Z,84.3
2017-12-09T05:07:32.643Z,84.3
2017-12-09T05:08:31.582Z,84.1
2017-12-09T05:09:30.192Z,84.2
2017-12-09T05:10:29.517Z,84.1
2017-12-09T05:11:28.223Z,84.3
2017-12-09T05:12:27.552Z,84.5
2017-12-09T05:13:26.163Z,84.5
2017-12-09T05:14:25.090Z,84.2
2017-12-09T05:15:24.094Z,84.5
2017-12-09T05:16:23.022Z,84.6
2017-12-09T05:17:22.022Z,84.5
2017-12-09T05:18:21.132Z,84.7
2017-12-09T05:19:19.956Z,84.6
2017-12-09T05:20:18.886Z,84.7
2017-12-09T05:21:17.993Z,84.7
2017-12-09T05:22:17.209Z,84.8
2017-12-09T05:23:15.921Z,84.8
2017-12-09T05:24:15.137Z,84.8
2017-12-09T05:25:14.066Z,84.6
2017-12-09T05:26:12.892Z,84.6
2017-12-09T05:27:12.110Z,84.3
2017-12-09T05:28:10.824Z,84.4
2017-12-09T05:29:09.935Z,84.6
2017-12-09T05:30:08.747Z,84.5
2017-12-09T05:31:07.696Z,84.7
2017-12-09T05:32:06.927Z,84.6
2017-12-09T05:33:05.862Z,84.4
2017-12-09T05:34:04.470Z,84.5
2017-12-09T05:35:03.693Z,84.3
2017-12-09T05:36:02.598Z,84.2
2017-12-09T05:37:01.713Z,84.1
2017-12-09T05:38:00.727Z,84.3
2017-12-09T05:38:59.560Z,84.2
2017-12-09T05:39:58.554Z,84.6
2017-12-09T05:40:29.091Z,84.6
2017-12-09T05:40:59.625Z,84.5
2017-12-09T05:41:30.264Z,84.5
2017-12-09T05:42:55.357Z,84.5
2017-12-09T05:43:54.674Z,84.5
2017-12-09T05:44:53.380Z,84.7
2017-12-09T05:45:52.300Z,84.9
2017-12-09T05:46:51.525Z,84.7
2017-12-09T05:47:50.346Z,84.8
2017-12-09T05:48:48.952Z,84.7
2017-12-09T05:49:48.500Z,84.8
2017-12-09T05:50:47.208Z,84.7
2017-12-09T05:51:46.214Z,84.6
2017-12-09T05:52:45.440Z,84.2
2017-12-09T05:53:44.156Z,84
2017-12-09T05:54:43.380Z,84.1
2017-12-09T05:55:42.098Z,84.1
2017-12-09T05:56:40.919Z,84.2
2017-12-09T05:57:40.028Z,84.2
2017-12-09T05:58:39.254Z,84.1
2017-12-09T05:59:37.860Z,84.2
2017-12-09T06:00:36.969Z,83.6
2017-12-09T06:01:35.690Z,83.6
2017-12-09T06:02:35.116Z,83.8
2017-12-09T06:03:34.053Z,83.9
2017-12-09T06:04:32.874Z,84.1
2017-12-09T06:05:31.808Z,83.9
2017-12-09T06:06:30.527Z,84.1
2017-12-09T06:07:01.052Z,84.1
2017-12-09T06:07:31.794Z,83.8
2017-12-09T06:08:28.705Z,84
2017-12-09T06:09:28.226Z,84.2
2017-12-09T06:10:26.595Z,84.4
2017-12-09T06:11:25.827Z,84.6
2017-12-09T06:12:24.438Z,84.6
2017-12-09T06:13:23.662Z,84.7
2017-12-09T06:14:22.282Z,84.5
2017-12-09T06:15:21.289Z,84.8
2017-12-09T06:16:20.512Z,84.6
2017-12-09T06:16:50.948Z,84.6
2017-12-09T06:17:21.480Z,84.7
2017-12-09T06:17:52.027Z,84.7
2017-12-09T06:18:22.667Z,84.8
2017-12-09T06:19:17.619Z,84.6
2017-12-09T06:20:16.322Z,84.7
2017-12-09T06:21:15.247Z,84.6
2017-12-09T06:22:14.064Z,84.9
2017-12-09T06:23:13.081Z,84.6
2017-12-09T06:24:12.404Z,84.7
2017-12-09T06:25:11.327Z,84.7
2017-12-09T06:26:10.043Z,84.9
2017-12-09T06:27:09.389Z,84.9
2017-12-09T06:28:07.942Z,84.9
2017-12-09T06:29:06.955Z,84.9
2017-12-09T06:30:06.294Z,85
2017-12-09T06:31:05.226Z,85
2017-12-09T06:32:04.153Z,85.2
2017-12-09T06:33:02.871Z,85.2
2017-12-09T06:34:01.705Z,85.1
2017-12-09T06:35:01.021Z,84.8
2017-12-09T06:35:59.740Z,84.7
2017-12-09T06:36:58.676Z,84.8
2017-12-09T06:37:58.003Z,84.6
2017-12-09T06:38:56.820Z,84.7
2017-12-09T06:39:55.944Z,84.8
2017-12-09T06:40:54.775Z,84.5
2017-12-09T06:41:53.604Z,84.6
2017-12-09T06:42:52.719Z,84.7
2017-12-09T06:43:51.545Z,84.3
2017-12-09T06:44:50.772Z,84.2
2017-12-09T06:45:49.709Z,84.2
2017-12-09T06:46:48.539Z,84
2017-12-09T06:47:18.985Z,84
2017-12-09T06:47:49.520Z,83.8
2017-12-09T06:48:46.241Z,83.9
2017-12-09T06:49:45.356Z,83.3
2017-12-09T06:51:43.349Z,83.1
2017-12-09T06:52:42.280Z,82.4
2017-12-09T06:53:41.495Z,82.3
2017-12-09T06:54:40.217Z,82.3
2017-12-09T06:55:39.219Z,82.1
2017-12-09T06:56:09.860Z,82.1
2017-12-09T06:56:40.404Z,82.3
2017-12-09T06:57:11.037Z,82.3
2017-12-09T06:57:41.355Z,82
2017-12-09T06:58:11.998Z,82
2017-12-09T06:58:42.248Z,81.7
2017-12-09T06:59:12.778Z,81.7
2017-12-09T07:00:33.741Z,81.7
2017-12-09T07:01:33.071Z,81.4
2017-12-09T07:02:31.889Z,81.6
2017-12-09T07:03:31.109Z,81.2
2017-12-09T07:04:29.820Z,81
2017-12-09T07:05:28.744Z,80.9
2017-12-09T07:06:27.965Z,81.2
2017-12-09T07:07:26.780Z,81.2
2017-12-09T07:08:25.699Z,81.2
2017-12-09T07:08:56.121Z,81.2
2017-12-09T07:10:23.528Z,81.1
2017-12-09T07:11:22.640Z,81.1
2017-12-09T07:12:21.864Z,81.3
2017-12-09T07:13:20.583Z,81.3
2017-12-09T07:14:19.501Z,81.3
2017-12-09T07:15:18.711Z,81
2017-12-09T07:16:17.711Z,81.2
2017-12-09T07:17:16.827Z,81.2
2017-12-09T07:18:15.539Z,81.6
2017-12-09T07:19:14.438Z,81.9
2017-12-09T07:20:13.761Z,81.4
2017-12-09T07:21:12.476Z,81.3
2017-12-09T07:22:11.216Z,81.4
2017-12-09T07:23:10.542Z,81.4
2017-12-09T07:24:09.472Z,81.3
2017-12-09T07:25:08.292Z,81.1
2017-12-09T07:26:07.508Z,81.3
2017-12-09T07:27:06.325Z,81.3
2017-12-09T07:28:05.045Z,81.3
2017-12-09T07:29:04.376Z,81.3
2017-12-09T07:30:03.106Z,81.1
2017-12-09T07:31:01.917Z,81.3
2017-12-09T07:32:01.147Z,80.7
2017-12-09T07:32:59.982Z,80.8
2017-12-09T07:33:59.206Z,80.7
2017-12-09T07:34:58.379Z,80.3
2017-12-09T07:35:57.213Z,79.9
2017-12-09T07:36:27.756Z,79.9
2017-12-09T07:36:58.295Z,80
2017-12-09T07:37:28.731Z,80
2017-12-09T07:37:59.275Z,79.9
2017-12-09T07:38:29.802Z,79.9
2017-12-09T07:39:00.433Z,80
2017-12-09T07:39:30.863Z,80
2017-12-09T07:40:51.726Z,79.9
2017-12-09T07:41:51.051Z,80
2017-12-09T07:42:49.882Z,80.3
2017-12-09T07:43:48.717Z,80.2
2017-12-09T07:44:47.638Z,79.6
2017-12-09T07:45:46.852Z,79.8
2017-12-09T07:46:45.886Z,79.4
2017-12-09T07:47:44.492Z,79.6
2017-12-09T07:48:43.756Z,79.2
2017-12-09T07:49:14.290Z,79.2
2017-12-09T07:49:44.819Z,78.6
2017-12-09T07:50:15.258Z,78.6
2017-12-09T07:50:45.890Z,78.8
2017-12-09T07:51:40.571Z,79
2017-12-09T07:52:39.576Z,79
2017-12-09T07:53:38.581Z,78.3
2017-12-09T07:54:37.408Z,78.5
2017-12-09T07:55:36.413Z,78.2
2017-12-09T07:56:35.526Z,78.2
2017-12-09T07:57:34.463Z,77.4
2017-12-09T07:58:33.683Z,78.1
2017-12-09T07:59:32.504Z,78
2017-12-09T08:00:31.728Z,77.6
2017-12-09T08:01:30.447Z,77.6
2017-12-09T08:02:29.279Z,77.7
2017-12-09T08:03:28.414Z,77.3
2017-12-09T08:04:27.635Z,77.2
2017-12-09T08:05:26.467Z,76.9
2017-12-09T08:06:25.089Z,77.2
2017-12-09T08:07:24.516Z,76.8
2017-12-09T08:09:22.220Z,77.2
2017-12-09T08:10:21.665Z,76.1
2017-12-09T08:11:20.276Z,76.3
2017-12-09T08:12:19.090Z,76.3
2017-12-09T08:13:18.414Z,75.3
2017-12-09T08:14:17.236Z,75.3
2017-12-09T08:16:14.927Z,75.2
2017-12-09T08:17:14.246Z,75
2017-12-09T08:17:44.479Z,75
2017-12-09T08:18:14.613Z,75
2017-12-09T08:18:45.368Z,75
2017-12-09T08:20:11.160Z,75.7
2017-12-09T08:21:09.973Z,76.3
2017-12-09T08:22:09.085Z,77.2
2017-12-09T08:23:07.912Z,77.5
2017-12-09T08:24:06.922Z,77.9
2017-12-09T08:25:06.137Z,78
2017-12-09T08:26:04.858Z,78
2017-12-09T08:27:03.970Z,77.8
2017-12-09T08:28:02.919Z,77.3
2017-12-09T08:28:33.170Z,77.3
2017-12-09T08:29:03.700Z,76.8
2017-12-09T08:30:59.787Z,75.3
2017-12-09T08:31:58.497Z,75.3
2017-12-09T08:33:56.704Z,75.1
2017-12-09T08:34:55.807Z,74.6
2017-12-09T08:35:54.727Z,74.8
2017-12-09T08:36:53.555Z,74.3
2017-12-09T08:37:52.948Z,74.9
2017-12-09T08:38:51.454Z,74.3
2017-12-09T08:39:50.774Z,74.3
2017-12-09T08:40:49.597Z,74.3
2017-12-09T08:41:48.716Z,74.3
2017-12-09T08:42:47.539Z,74.2
2017-12-09T08:44:45.540Z,74.8
2017-12-09T08:45:44.545Z,75.1
2017-12-09T08:46:43.670Z,75.2
2017-12-09T08:47:42.383Z,74.9
2017-12-09T08:48:41.398Z,74.5
2017-12-09T08:49:40.221Z,74.7
2017-12-09T08:50:39.556Z,74.5
2017-12-09T08:51:38.670Z,74.8
2017-12-09T08:52:37.382Z,74.3
2017-12-09T08:53:36.484Z,73.3
2017-12-09T08:54:35.296Z,73
2017-12-09T08:55:34.514Z,73.2
2017-12-09T08:56:33.413Z,73.2
2017-12-09T08:57:32.342Z,73.2
2017-12-09T08:58:30.946Z,72.5
2017-12-09T09:00:29.337Z,73.1
2017-12-09T09:01:28.461Z,73.1
2017-12-09T09:02:27.175Z,72.6
2017-12-09T09:03:26.399Z,72.7
2017-12-09T09:04:25.107Z,72.6
2017-12-09T09:05:23.920Z,72.4
2017-12-09T09:07:22.017Z,71.7
2017-12-09T09:08:21.236Z,71.6
2017-12-09T09:09:20.178Z,71.9
2017-12-09T09:10:19.172Z,71.2
2017-12-09T09:12:17.162Z,71
2017-12-09T09:12:47.580Z,71
2017-12-09T09:13:18.000Z,71.6
2017-12-09T09:13:48.425Z,71.6
2017-12-09T09:14:18.857Z,71.4
2017-12-09T09:14:49.182Z,71.4
2017-12-09T09:16:12.847Z,71.2
2017-12-09T09:17:12.170Z,71.9
2017-12-09T09:18:10.997Z,71
2017-12-09T09:19:09.727Z,71.7
2017-12-09T09:20:09.051Z,72.1
2017-12-09T09:21:07.769Z,71.7
2017-12-09T09:22:06.883Z,71.9
2017-12-09T09:23:06.104Z,72.1
2017-12-09T09:24:04.606Z,71.6
2017-12-09T09:25:03.816Z,71.5
2017-12-09T09:26:02.638Z,71.1
2017-12-09T09:27:01.560Z,71.9
2017-12-09T09:28:00.885Z,72
2017-12-09T09:28:59.996Z,71.4
2017-12-09T09:29:58.490Z,71.4
2017-12-09T09:31:56.590Z,71.5
2017-12-09T09:32:55.804Z,71.5
2017-12-09T09:33:54.914Z,71.2
2017-12-09T09:34:53.859Z,70.9
2017-12-09T09:36:51.459Z,71.3
2017-12-09T09:37:50.594Z,71.2
2017-12-09T09:38:49.381Z,71.7
2017-12-09T09:39:48.382Z,72.2
2017-12-09T09:40:47.497Z,71
2017-12-09T09:41:46.401Z,70
2017-12-09T09:42:17.045Z,70
2017-12-09T09:42:47.580Z,69.5
2017-12-09T09:43:44.281Z,70.4
2017-12-09T09:45:42.496Z,69.7
2017-12-09T09:46:41.326Z,70.1
2017-12-09T09:47:40.256Z,69.2
2017-12-09T09:48:39.475Z,69.5
2017-12-09T09:50:37.578Z,69.6
2017-12-09T09:51:36.300Z,70.2
2017-12-09T09:52:06.834Z,70.2
2017-12-09T09:52:37.363Z,69.8
2017-12-09T09:53:07.908Z,69.8
2017-12-09T09:54:33.402Z,68.8
2017-12-09T09:55:03.838Z,68.8
2017-12-09T09:55:34.271Z,70.2
2017-12-09T09:56:04.834Z,70.2
2017-12-09T09:57:30.261Z,69.7
2017-12-09T10:00:27.449Z,70.1
2017-12-09T10:02:25.235Z,69.8
2017-12-09T10:02:55.367Z,69.8
2017-12-09T10:04:23.197Z,69.8
2017-12-09T10:05:22.023Z,70
2017-12-09T10:06:21.346Z,70.4
2017-12-09T10:07:20.057Z,70
2017-12-09T10:09:18.048Z,70.2
2017-12-09T10:10:17.271Z,70.2
2017-12-09T10:11:16.046Z,70.6
2017-12-09T10:12:14.966Z,70.5
2017-12-09T10:13:14.086Z,71.4
2017-12-09T10:14:13.015Z,70.9
2017-12-09T10:15:11.829Z,71.4
2017-12-09T10:16:11.051Z,70.7
2017-12-09T10:17:10.260Z,71.2
2017-12-09T10:18:09.188Z,71.6
2017-12-09T10:19:08.124Z,71.8
2017-12-09T10:20:06.836Z,71.6
2017-12-09T10:21:06.062Z,71.9
2017-12-09T10:22:04.901Z,72.9
2017-12-09T10:23:04.244Z,72.5
2017-12-09T10:24:03.135Z,72.3
2017-12-09T10:25:01.743Z,72.3
2017-12-09T10:26:00.960Z,71.7
2017-12-09T10:27:59.054Z,72.7
2017-12-09T10:28:57.672Z,72.8
2017-12-09T10:29:57.004Z,72.4
2017-12-09T10:31:54.593Z,71.5
2017-12-09T10:32:53.603Z,72
2017-12-09T10:33:52.929Z,72
2017-12-09T10:34:23.375Z,72
2017-12-09T10:34:53.907Z,73.1
2017-12-09T10:35:24.159Z,73.1
2017-12-09T10:36:49.553Z,74.4
2017-12-09T10:39:46.538Z,75.5
2017-12-09T10:40:45.766Z,76.5
2017-12-09T10:41:44.482Z,76.9
2017-12-09T10:42:43.606Z,77.4
2017-12-09T10:43:42.321Z,77.6
2017-12-09T10:44:12.862Z,77.6
2017-12-09T10:44:42.997Z,77.7
2017-12-09T10:45:13.645Z,77.7
2017-12-09T10:46:39.749Z,77.7
2017-12-09T10:47:38.464Z,78.8
2017-12-09T10:48:37.447Z,78.2
2017-12-09T10:49:36.566Z,79
2017-12-09T10:50:35.504Z,79.4
2017-12-09T10:51:34.115Z,80.1
2017-12-09T10:52:33.448Z,80
2017-12-09T10:54:31.350Z,80.1
2017-12-09T10:55:30.465Z,79.9
2017-12-09T10:56:29.399Z,79.9
2017-12-09T10:57:28.219Z,80.1
2017-12-09T10:58:27.543Z,79.8
2017-12-09T10:59:26.262Z,78.9
2017-12-09T11:00:24.973Z,78.6
2017-12-09T11:01:24.060Z,78.9
2017-12-09T11:02:23.272Z,79.5
2017-12-09T11:03:22.094Z,78.3
2017-12-09T11:04:21.210Z,77.9
2017-12-09T11:05:20.032Z,76.9
2017-12-09T11:06:19.267Z,76.9
2017-12-09T11:07:18.089Z,77.2
2017-12-09T11:08:17.202Z,75.4
2017-12-09T11:09:16.032Z,75.1
2017-12-09T11:11:14.238Z,73.8
2017-12-09T11:12:12.951Z,74
2017-12-09T11:13:12.087Z,73.9
2017-12-09T11:14:10.904Z,74.2
2017-12-09T11:15:10.118Z,74.4
2017-12-09T11:16:08.728Z,74.3
2017-12-09T11:17:07.497Z,74.2
2017-12-09T11:18:06.845Z,73.8
2017-12-09T11:19:05.565Z,75.2
2017-12-09T11:20:04.570Z,74.5
2017-12-09T11:21:03.678Z,74.1
2017-12-09T11:22:02.894Z,74.6
2017-12-09T11:23:01.616Z,74.5
2017-12-09T11:24:00.620Z,75
2017-12-09T11:24:59.548Z,74.6
2017-12-09T11:25:58.766Z,74.7
2017-12-09T11:26:57.531Z,77.3
2017-12-09T11:27:56.750Z,75.5
2017-12-09T11:28:55.473Z,75.4
2017-12-09T11:29:54.598Z,75.3
2017-12-09T11:30:53.423Z,75.5
2017-12-09T11:31:52.251Z,75.1
2017-12-09T11:32:51.375Z,75.5
2017-12-09T11:33:50.242Z,75.2
2017-12-09T11:34:49.672Z,74.8
2017-12-09T11:35:48.212Z,75.9
2017-12-09T11:36:47.552Z,75.5
2017-12-09T11:37:46.168Z,75.6
2017-12-09T11:38:45.397Z,76.3
2017-12-09T11:39:44.279Z,76.8
2017-12-09T11:40:43.199Z,77
2017-12-09T11:41:42.020Z,77.8
2017-12-09T11:42:41.242Z,78.3
2017-12-09T11:43:40.177Z,78.7
2017-12-09T11:44:39.409Z,78.8
2017-12-09T11:45:38.022Z,78.4
2017-12-09T11:46:37.247Z,78.3
2017-12-09T11:47:36.132Z,77.4
2017-12-09T11:48:34.999Z,77.2
2017-12-09T11:49:33.865Z,76.9
2017-12-09T11:50:32.980Z,77
2017-12-09T11:51:31.803Z,77.1
2017-12-09T11:52:30.627Z,77
2017-12-09T11:53:29.844Z,77.6
2017-12-09T11:54:29.068Z,77.9
2017-12-09T11:55:42.760Z,78.4
2017-12-09T11:56:26.988Z,79.8
2017-12-09T11:57:25.807Z,79.7
2017-12-09T11:58:24.921Z,78.4
2017-12-09T11:59:24.030Z,78.8
2017-12-09T12:00:22.642Z,79.6
2017-12-09T12:01:21.751Z,79.2
2017-12-09T12:01:52.282Z,79.2
2017-12-09T12:03:19.570Z,78.9
2017-12-09T12:04:18.680Z,79.4
2017-12-09T12:05:17.493Z,79.6
2017-12-09T12:06:16.610Z,79.8
2017-12-09T12:07:15.612Z,80.2
2017-12-09T12:08:14.617Z,79.8
2017-12-09T12:08:45.034Z,79.8
2017-12-09T12:09:15.666Z,80.8
2017-12-09T12:10:12.259Z,80.5
2017-12-09T12:11:11.598Z,80.4
2017-12-09T12:12:10.205Z,79
2017-12-09T12:13:09.668Z,78.3
2017-12-09T12:14:08.437Z,77.6
2017-12-09T12:15:07.152Z,76.8
2017-12-09T12:16:06.478Z,77.2
2017-12-09T12:17:05.371Z,76.8
2017-12-09T12:18:04.484Z,76.5
2017-12-09T12:19:03.491Z,75.9
2017-12-09T12:20:02.202Z,75.7
2017-12-09T12:21:01.027Z,75.8
2017-12-09T12:22:00.248Z,75.9
2017-12-09T12:22:59.174Z,75.9
2017-12-09T12:23:57.989Z,76.3
2017-12-09T12:24:57.108Z,76.6
2017-12-09T12:25:56.218Z,76
2017-12-09T12:26:54.936Z,76.5
2017-12-09T12:27:53.943Z,76.6
2017-12-09T12:28:53.227Z,76.7
2017-12-09T12:29:52.150Z,76.9
2017-12-09T12:30:50.978Z,76.4
2017-12-09T12:31:50.160Z,76.6
2017-12-09T12:33:47.681Z,76.4
2017-12-09T12:34:46.904Z,76.5
2017-12-09T12:35:45.904Z,76.7
2017-12-09T12:36:44.623Z,76.3
2017-12-09T12:37:43.551Z,76.3
2017-12-09T12:38:42.873Z,76.4
2017-12-09T12:39:41.697Z,76.3
2017-12-09T12:40:40.628Z,76.5
2017-12-09T12:42:38.445Z,76.4
2017-12-09T12:43:08.981Z,76.4
2017-12-09T12:43:39.429Z,76.3
2017-12-09T12:44:36.537Z,76.6
2017-12-09T12:45:35.767Z,77
2017-12-09T12:46:34.286Z,76.4
2017-12-09T12:47:33.525Z,76.8
2017-12-09T12:48:32.650Z,76.5
2017-12-09T12:49:31.472Z,76.6
2017-12-09T12:50:30.704Z,76.7
2017-12-09T12:51:29.478Z,77.2
2017-12-09T12:52:28.161Z,77.3
2017-12-09T12:53:27.381Z,77.1
2017-12-09T12:55:25.273Z,77.2
2017-12-09T12:56:24.289Z,77.5
2017-12-09T12:57:23.412Z,77.2
2017-12-09T12:58:22.239Z,77.3